sensor_id;sensor_type;location;lat;lon;timestamp;pressure;altitude;pressure_sealevel;temperature
20736;BMP180;10528;52.124;5.196;2022-09-09T00:01:52;100677.00;;;23.50
20736;BMP180;10528;52.124;5.196;2022-09-09T00:04:27;100670.00;;;23.50
20736;BMP180;10528;52.124;5.196;2022-09-09T00:10:39;100667.00;;;23.40
20736;BMP180;10528;52.124;5.196;2022-09-09T00:13:22;100657.00;;;23.40
20736;BMP180;10528;52.124;5.196;2022-09-09T00:16:03;100662.00;;;23.40
20736;BMP180;10528;52.124;5.196;2022-09-09T00:19:18;100659.00;;;23.30
20736;BMP180;10528;52.124;5.196;2022-09-09T00:22:14;100654.00;;;23.30
20736;BMP180;10528;52.124;5.196;2022-09-09T00:24:44;100655.00;;;23.30
20736;BMP180;10528;52.124;5.196;2022-09-09T00:27:31;100653.00;;;23.30
20736;BMP180;10528;52.124;5.196;2022-09-09T00:30:23;100654.00;;;23.30
20736;BMP180;10528;52.124;5.196;2022-09-09T00:32:58;100654.00;;;23.30
20736;BMP180;10528;52.124;5.196;2022-09-09T00:35:31;100650.00;;;23.30
20736;BMP180;10528;52.124;5.196;2022-09-09T00:38:18;100648.00;;;23.30
20736;BMP180;10528;52.124;5.196;2022-09-09T00:40:53;100648.00;;;23.20
20736;BMP180;10528;52.124;5.196;2022-09-09T00:43:35;100654.00;;;23.20
20736;BMP180;10528;52.124;5.196;2022-09-09T00:49:47;100650.00;;;23.20
20736;BMP180;10528;52.124;5.196;2022-09-09T00:52:47;100651.00;;;23.10
20736;BMP180;10528;52.124;5.196;2022-09-09T00:55:28;100657.00;;;23.10
20736;BMP180;10528;52.124;5.196;2022-09-09T00:58:00;100651.00;;;23.10
20736;BMP180;10528;52.124;5.196;2022-09-09T01:00:31;100653.00;;;23.10
20736;BMP180;10528;52.124;5.196;2022-09-09T01:06:15;100648.00;;;23.00
20736;BMP180;10528;52.124;5.196;2022-09-09T01:12:07;100640.00;;;22.90
20736;BMP180;10528;52.124;5.196;2022-09-09T01:17:48;100648.00;;;22.90
20736;BMP180;10528;52.124;5.196;2022-09-09T01:20:29;100649.00;;;22.90
20736;BMP180;10528;52.124;5.196;2022-09-09T01:28:53;100643.00;;;22.80
20736;BMP180;10528;52.124;5.196;2022-09-09T01:31:36;100640.00;;;22.80
20736;BMP180;10528;52.124;5.196;2022-09-09T01:34:14;100641.00;;;22.80
20736;BMP180;10528;52.124;5.196;2022-09-09T01:37:10;100637.00;;;22.70
20736;BMP180;10528;52.124;5.196;2022-09-09T01:39:42;100639.00;;;22.70
20736;BMP180;10528;52.124;5.196;2022-09-09T01:42:15;100640.00;;;22.70
20736;BMP180;10528;52.124;5.196;2022-09-09T01:44:43;100641.00;;;22.70
20736;BMP180;10528;52.124;5.196;2022-09-09T01:47:10;100631.00;;;22.70
20736;BMP180;10528;52.124;5.196;2022-09-09T01:49:53;100628.00;;;22.70
20736;BMP180;10528;52.124;5.196;2022-09-09T01:52:24;100631.00;;;22.70
20736;BMP180;10528;52.124;5.196;2022-09-09T01:54:51;100622.00;;;22.70
20736;BMP180;10528;52.124;5.196;2022-09-09T01:57:32;100628.00;;;22.60
20736;BMP180;10528;52.124;5.196;2022-09-09T02:00:08;100619.00;;;22.60
20736;BMP180;10528;52.124;5.196;2022-09-09T02:05:41;100624.00;;;22.60
20736;BMP180;10528;52.124;5.196;2022-09-09T02:11:22;100602.00;;;22.50
20736;BMP180;10528;52.124;5.196;2022-09-09T02:16:48;100606.00;;;22.50
20736;BMP180;10528;52.124;5.196;2022-09-09T02:19:31;100609.00;;;22.50
20736;BMP180;10528;52.124;5.196;2022-09-09T02:22:05;100600.00;;;22.50
20736;BMP180;10528;52.124;5.196;2022-09-09T02:24:38;100605.00;;;22.50
20736;BMP180;10528;52.124;5.196;2022-09-09T02:27:18;100599.00;;;22.40
20736;BMP180;10528;52.124;5.196;2022-09-09T02:29:49;100608.00;;;22.40
20736;BMP180;10528;52.124;5.196;2022-09-09T02:32:23;100604.00;;;22.40
20736;BMP180;10528;52.124;5.196;2022-09-09T02:35:06;100609.00;;;22.40
20736;BMP180;10528;52.124;5.196;2022-09-09T02:37:39;100612.00;;;22.40
20736;BMP180;10528;52.124;5.196;2022-09-09T02:40:11;100606.00;;;22.40
20736;BMP180;10528;52.124;5.196;2022-09-09T02:42:45;100602.00;;;22.40
20736;BMP180;10528;52.124;5.196;2022-09-09T02:45:27;100604.00;;;22.30
20736;BMP180;10528;52.124;5.196;2022-09-09T02:48:21;100593.00;;;22.30
20736;BMP180;10528;52.124;5.196;2022-09-09T02:51:08;100604.00;;;22.30
20736;BMP180;10528;52.124;5.196;2022-09-09T02:53:49;100597.00;;;22.30
20736;BMP180;10528;52.124;5.196;2022-09-09T02:56:21;100594.00;;;22.30
20736;BMP180;10528;52.124;5.196;2022-09-09T02:58:55;100596.00;;;22.30
20736;BMP180;10528;52.124;5.196;2022-09-09T03:01:22;100592.00;;;22.30
20736;BMP180;10528;52.124;5.196;2022-09-09T03:03:49;100588.00;;;22.30
20736;BMP180;10528;52.124;5.196;2022-09-09T03:06:17;100597.00;;;22.30
20736;BMP180;10528;52.124;5.196;2022-09-09T03:08:49;100599.00;;;22.20
20736;BMP180;10528;52.124;5.196;2022-09-09T03:11:21;100591.00;;;22.20
20736;BMP180;10528;52.124;5.196;2022-09-09T03:13:48;100582.00;;;22.20
20736;BMP180;10528;52.124;5.196;2022-09-09T03:16:16;100580.00;;;22.20
20736;BMP180;10528;52.124;5.196;2022-09-09T03:18:46;100589.00;;;22.20
20736;BMP180;10528;52.124;5.196;2022-09-09T03:21:13;100573.00;;;22.20
20736;BMP180;10528;52.124;5.196;2022-09-09T03:23:41;100576.00;;;22.20
20736;BMP180;10528;52.124;5.196;2022-09-09T03:26:08;100583.00;;;22.20
20736;BMP180;10528;52.124;5.196;2022-09-09T03:28:42;100589.00;;;22.20
20736;BMP180;10528;52.124;5.196;2022-09-09T03:31:10;100583.00;;;22.10
20736;BMP180;10528;52.124;5.196;2022-09-09T03:33:40;100580.00;;;22.10
20736;BMP180;10528;52.124;5.196;2022-09-09T03:36:10;100588.00;;;22.10
20736;BMP180;10528;52.124;5.196;2022-09-09T03:38:38;100589.00;;;22.10
20736;BMP180;10528;52.124;5.196;2022-09-09T03:41:05;100582.00;;;22.10
20736;BMP180;10528;52.124;5.196;2022-09-09T03:43:33;100578.00;;;22.10
20736;BMP180;10528;52.124;5.196;2022-09-09T03:46:00;100574.00;;;22.10
20736;BMP180;10528;52.124;5.196;2022-09-09T03:48:28;100568.00;;;22.00
20736;BMP180;10528;52.124;5.196;2022-09-09T03:50:56;100573.00;;;22.00
20736;BMP180;10528;52.124;5.196;2022-09-09T03:53:25;100587.00;;;22.00
20736;BMP180;10528;52.124;5.196;2022-09-09T03:55:55;100592.00;;;22.00
20736;BMP180;10528;52.124;5.196;2022-09-09T03:58:25;100578.00;;;22.00
20736;BMP180;10528;52.124;5.196;2022-09-09T04:01:06;100588.00;;;22.00
20736;BMP180;10528;52.124;5.196;2022-09-09T04:03:36;100589.00;;;21.90
20736;BMP180;10528;52.124;5.196;2022-09-09T04:06:05;100574.00;;;21.90
20736;BMP180;10528;52.124;5.196;2022-09-09T04:08:33;100576.00;;;21.90
20736;BMP180;10528;52.124;5.196;2022-09-09T04:11:02;100571.00;;;21.90
20736;BMP180;10528;52.124;5.196;2022-09-09T04:13:33;100568.00;;;21.90
20736;BMP180;10528;52.124;5.196;2022-09-09T04:16:03;100568.00;;;21.90
20736;BMP180;10528;52.124;5.196;2022-09-09T04:18:32;100569.00;;;21.90
20736;BMP180;10528;52.124;5.196;2022-09-09T04:21:00;100566.00;;;21.90
20736;BMP180;10528;52.124;5.196;2022-09-09T04:23:29;100563.00;;;21.90
20736;BMP180;10528;52.124;5.196;2022-09-09T04:25:59;100561.00;;;21.80
20736;BMP180;10528;52.124;5.196;2022-09-09T04:28:30;100552.00;;;21.80
20736;BMP180;10528;52.124;5.196;2022-09-09T04:31:08;100548.00;;;21.80
20736;BMP180;10528;52.124;5.196;2022-09-09T04:33:38;100561.00;;;21.80
20736;BMP180;10528;52.124;5.196;2022-09-09T04:36:07;100545.00;;;21.80
20736;BMP180;10528;52.124;5.196;2022-09-09T04:38:35;100551.00;;;21.80
20736;BMP180;10528;52.124;5.196;2022-09-09T04:41:03;100552.00;;;21.80
20736;BMP180;10528;52.124;5.196;2022-09-09T04:43:32;100543.00;;;21.80
20736;BMP180;10528;52.124;5.196;2022-09-09T04:46:01;100546.00;;;21.80
20736;BMP180;10528;52.124;5.196;2022-09-09T04:48:30;100536.00;;;21.80
20736;BMP180;10528;52.124;5.196;2022-09-09T04:51:02;100547.00;;;21.80
20736;BMP180;10528;52.124;5.196;2022-09-09T04:53:32;100552.00;;;21.80
20736;BMP180;10528;52.124;5.196;2022-09-09T04:56:10;100561.00;;;21.80
20736;BMP180;10528;52.124;5.196;2022-09-09T04:58:42;100551.00;;;21.80
20736;BMP180;10528;52.124;5.196;2022-09-09T05:01:17;100548.00;;;21.70
20736;BMP180;10528;52.124;5.196;2022-09-09T05:03:46;100551.00;;;21.70
20736;BMP180;10528;52.124;5.196;2022-09-09T05:06:20;100553.00;;;21.70
20736;BMP180;10528;52.124;5.196;2022-09-09T05:08:50;100556.00;;;21.70
20736;BMP180;10528;52.124;5.196;2022-09-09T05:11:27;100543.00;;;21.70
20736;BMP180;10528;52.124;5.196;2022-09-09T05:13:58;100549.00;;;21.70
20736;BMP180;10528;52.124;5.196;2022-09-09T05:16:26;100535.00;;;21.70
20736;BMP180;10528;52.124;5.196;2022-09-09T05:18:54;100536.00;;;21.70
20736;BMP180;10528;52.124;5.196;2022-09-09T05:21:23;100540.00;;;21.70
20736;BMP180;10528;52.124;5.196;2022-09-09T05:23:51;100531.00;;;21.70
20736;BMP180;10528;52.124;5.196;2022-09-09T05:26:21;100539.00;;;21.70
20736;BMP180;10528;52.124;5.196;2022-09-09T05:28:51;100546.00;;;21.70
20736;BMP180;10528;52.124;5.196;2022-09-09T05:31:19;100536.00;;;21.70
20736;BMP180;10528;52.124;5.196;2022-09-09T05:33:49;100552.00;;;21.70
20736;BMP180;10528;52.124;5.196;2022-09-09T05:36:19;100545.00;;;21.70
20736;BMP180;10528;52.124;5.196;2022-09-09T05:38:50;100536.00;;;21.70
20736;BMP180;10528;52.124;5.196;2022-09-09T05:41:19;100523.00;;;21.70
20736;BMP180;10528;52.124;5.196;2022-09-09T05:43:47;100530.00;;;21.70
20736;BMP180;10528;52.124;5.196;2022-09-09T05:46:23;100530.00;;;21.70
20736;BMP180;10528;52.124;5.196;2022-09-09T05:48:53;100539.00;;;21.70
20736;BMP180;10528;52.124;5.196;2022-09-09T05:51:28;100538.00;;;21.70
20736;BMP180;10528;52.124;5.196;2022-09-09T05:53:58;100546.00;;;21.70
20736;BMP180;10528;52.124;5.196;2022-09-09T05:56:31;100548.00;;;21.70
20736;BMP180;10528;52.124;5.196;2022-09-09T05:58:59;100545.00;;;21.80
20736;BMP180;10528;52.124;5.196;2022-09-09T06:01:34;100547.00;;;21.80
20736;BMP180;10528;52.124;5.196;2022-09-09T06:04:02;100550.00;;;21.80
20736;BMP180;10528;52.124;5.196;2022-09-09T06:06:34;100550.00;;;21.80
20736;BMP180;10528;52.124;5.196;2022-09-09T06:09:15;100542.00;;;21.80
20736;BMP180;10528;52.124;5.196;2022-09-09T06:11:43;100545.00;;;21.90
20736;BMP180;10528;52.124;5.196;2022-09-09T06:14:11;100538.00;;;21.90
20736;BMP180;10528;52.124;5.196;2022-09-09T06:16:39;100545.00;;;21.90
20736;BMP180;10528;52.124;5.196;2022-09-09T06:19:13;100549.00;;;22.00
20736;BMP180;10528;52.124;5.196;2022-09-09T06:21:41;100546.00;;;22.00
20736;BMP180;10528;52.124;5.196;2022-09-09T06:24:10;100536.00;;;22.00
20736;BMP180;10528;52.124;5.196;2022-09-09T06:26:40;100540.00;;;22.10
20736;BMP180;10528;52.124;5.196;2022-09-09T06:29:10;100544.00;;;22.20
20736;BMP180;10528;52.124;5.196;2022-09-09T06:31:38;100549.00;;;22.30
20736;BMP180;10528;52.124;5.196;2022-09-09T06:34:12;100539.00;;;22.40
20736;BMP180;10528;52.124;5.196;2022-09-09T06:36:43;100535.00;;;22.50
20736;BMP180;10528;52.124;5.196;2022-09-09T06:39:12;100535.00;;;22.60
20736;BMP180;10528;52.124;5.196;2022-09-09T06:41:41;100529.00;;;22.70
20736;BMP180;10528;52.124;5.196;2022-09-09T06:44:27;100528.00;;;22.70
20736;BMP180;10528;52.124;5.196;2022-09-09T06:47:00;100530.00;;;22.80
20736;BMP180;10528;52.124;5.196;2022-09-09T06:49:27;100533.00;;;22.80
20736;BMP180;10528;52.124;5.196;2022-09-09T06:51:54;100540.00;;;22.90
20736;BMP180;10528;52.124;5.196;2022-09-09T06:54:21;100526.00;;;23.00
20736;BMP180;10528;52.124;5.196;2022-09-09T06:56:49;100534.00;;;23.00
20736;BMP180;10528;52.124;5.196;2022-09-09T06:59:21;100531.00;;;23.10
20736;BMP180;10528;52.124;5.196;2022-09-09T07:01:49;100530.00;;;23.10
20736;BMP180;10528;52.124;5.196;2022-09-09T07:04:22;100532.00;;;23.00
20736;BMP180;10528;52.124;5.196;2022-09-09T07:06:48;100530.00;;;23.10
20736;BMP180;10528;52.124;5.196;2022-09-09T07:09:20;100536.00;;;23.20
20736;BMP180;10528;52.124;5.196;2022-09-09T07:11:51;100541.00;;;23.20
20736;BMP180;10528;52.124;5.196;2022-09-09T07:14:21;100536.00;;;23.30
20736;BMP180;10528;52.124;5.196;2022-09-09T07:16:54;100536.00;;;23.40
20736;BMP180;10528;52.124;5.196;2022-09-09T07:19:26;100522.00;;;23.50
20736;BMP180;10528;52.124;5.196;2022-09-09T07:21:54;100534.00;;;23.50
20736;BMP180;10528;52.124;5.196;2022-09-09T07:24:22;100527.00;;;23.60
20736;BMP180;10528;52.124;5.196;2022-09-09T07:26:50;100533.00;;;23.60
20736;BMP180;10528;52.124;5.196;2022-09-09T07:29:18;100539.00;;;23.60
20736;BMP180;10528;52.124;5.196;2022-09-09T07:31:47;100532.00;;;23.70
20736;BMP180;10528;52.124;5.196;2022-09-09T07:34:19;100541.00;;;23.70
20736;BMP180;10528;52.124;5.196;2022-09-09T07:36:47;100537.00;;;23.70
20736;BMP180;10528;52.124;5.196;2022-09-09T07:39:16;100549.00;;;23.70
20736;BMP180;10528;52.124;5.196;2022-09-09T07:41:49;100549.00;;;23.70
20736;BMP180;10528;52.124;5.196;2022-09-09T07:44:22;100553.00;;;23.70
20736;BMP180;10528;52.124;5.196;2022-09-09T07:46:55;100558.00;;;23.70
20736;BMP180;10528;52.124;5.196;2022-09-09T07:49:28;100554.00;;;23.70
20736;BMP180;10528;52.124;5.196;2022-09-09T07:52:00;100563.00;;;23.70
20736;BMP180;10528;52.124;5.196;2022-09-09T07:54:27;100565.00;;;23.70
20736;BMP180;10528;52.124;5.196;2022-09-09T07:56:54;100559.00;;;23.70
20736;BMP180;10528;52.124;5.196;2022-09-09T07:59:25;100552.00;;;23.70
20736;BMP180;10528;52.124;5.196;2022-09-09T08:01:53;100540.00;;;23.70
20736;BMP180;10528;52.124;5.196;2022-09-09T08:04:25;100554.00;;;23.70
20736;BMP180;10528;52.124;5.196;2022-09-09T08:06:57;100554.00;;;23.70
20736;BMP180;10528;52.124;5.196;2022-09-09T08:09:27;100553.00;;;23.70
20736;BMP180;10528;52.124;5.196;2022-09-09T08:12:07;100539.00;;;23.70
20736;BMP180;10528;52.124;5.196;2022-09-09T08:14:35;100546.00;;;23.60
20736;BMP180;10528;52.124;5.196;2022-09-09T08:17:02;100542.00;;;23.60
20736;BMP180;10528;52.124;5.196;2022-09-09T08:19:31;100549.00;;;23.60
20736;BMP180;10528;52.124;5.196;2022-09-09T08:22:02;100545.00;;;23.70
20736;BMP180;10528;52.124;5.196;2022-09-09T08:24:31;100543.00;;;23.60
20736;BMP180;10528;52.124;5.196;2022-09-09T08:26:58;100556.00;;;23.60
20736;BMP180;10528;52.124;5.196;2022-09-09T08:29:25;100561.00;;;23.60
20736;BMP180;10528;52.124;5.196;2022-09-09T08:31:55;100561.00;;;23.60
20736;BMP180;10528;52.124;5.196;2022-09-09T08:34:25;100563.00;;;23.60
20736;BMP180;10528;52.124;5.196;2022-09-09T08:36:54;100557.00;;;23.60
20736;BMP180;10528;52.124;5.196;2022-09-09T08:39:27;100555.00;;;23.60
20736;BMP180;10528;52.124;5.196;2022-09-09T08:45:12;100566.00;;;23.70
20736;BMP180;10528;52.124;5.196;2022-09-09T08:50:38;100572.00;;;23.70
20736;BMP180;10528;52.124;5.196;2022-09-09T08:53:18;100570.00;;;23.70
20736;BMP180;10528;52.124;5.196;2022-09-09T08:55:58;100569.00;;;23.70
20736;BMP180;10528;52.124;5.196;2022-09-09T08:58:53;100558.00;;;23.70
20736;BMP180;10528;52.124;5.196;2022-09-09T09:07:47;100578.00;;;23.70
20736;BMP180;10528;52.124;5.196;2022-09-09T09:13:27;100581.00;;;23.70
20736;BMP180;10528;52.124;5.196;2022-09-09T09:16:10;100582.00;;;23.70
20736;BMP180;10528;52.124;5.196;2022-09-09T09:18:40;100572.00;;;23.70
20736;BMP180;10528;52.124;5.196;2022-09-09T09:21:38;100572.00;;;23.70
20736;BMP180;10528;52.124;5.196;2022-09-09T09:24:19;100576.00;;;23.70
20736;BMP180;10528;52.124;5.196;2022-09-09T09:26:48;100574.00;;;23.70
20736;BMP180;10528;52.124;5.196;2022-09-09T09:29:19;100591.00;;;23.70
20736;BMP180;10528;52.124;5.196;2022-09-09T09:31:56;100589.00;;;23.70
20736;BMP180;10528;52.124;5.196;2022-09-09T09:34:26;100580.00;;;23.70
20736;BMP180;10528;52.124;5.196;2022-09-09T09:37:00;100586.00;;;23.70
20736;BMP180;10528;52.124;5.196;2022-09-09T09:39:33;100583.00;;;23.70
20736;BMP180;10528;52.124;5.196;2022-09-09T09:42:26;100588.00;;;23.70
20736;BMP180;10528;52.124;5.196;2022-09-09T09:44:56;100594.00;;;23.70
20736;BMP180;10528;52.124;5.196;2022-09-09T09:47:23;100602.00;;;23.70
20736;BMP180;10528;52.124;5.196;2022-09-09T09:50:19;100601.00;;;23.60
20736;BMP180;10528;52.124;5.196;2022-09-09T09:53:02;100588.00;;;23.70
20736;BMP180;10528;52.124;5.196;2022-09-09T09:55:35;100591.00;;;23.70
20736;BMP180;10528;52.124;5.196;2022-09-09T09:58:13;100576.00;;;23.70
20736;BMP180;10528;52.124;5.196;2022-09-09T10:00:51;100587.00;;;23.70
20736;BMP180;10528;52.124;5.196;2022-09-09T10:03:26;100593.00;;;23.70
20736;BMP180;10528;52.124;5.196;2022-09-09T10:05:54;100579.00;;;23.70
20736;BMP180;10528;52.124;5.196;2022-09-09T10:08:27;100579.00;;;23.70
20736;BMP180;10528;52.124;5.196;2022-09-09T10:11:30;100581.00;;;23.70
20736;BMP180;10528;52.124;5.196;2022-09-09T10:17:09;100578.00;;;23.70
20736;BMP180;10528;52.124;5.196;2022-09-09T10:22:46;100586.00;;;23.70
20736;BMP180;10528;52.124;5.196;2022-09-09T10:25:52;100588.00;;;23.70
20736;BMP180;10528;52.124;5.196;2022-09-09T10:38:12;100594.00;;;23.70
20736;BMP180;10528;52.124;5.196;2022-09-09T10:55:24;100573.00;;;23.90
20736;BMP180;10528;52.124;5.196;2022-09-09T10:57:58;100575.00;;;24.00
20736;BMP180;10528;52.124;5.196;2022-09-09T11:00:47;100560.00;;;24.00
20736;BMP180;10528;52.124;5.196;2022-09-09T11:03:26;100575.00;;;24.10
20736;BMP180;10528;52.124;5.196;2022-09-09T11:06:04;100575.00;;;24.20
20736;BMP180;10528;52.124;5.196;2022-09-09T11:08:35;100569.00;;;24.20
20736;BMP180;10528;52.124;5.196;2022-09-09T11:11:15;100579.00;;;24.30
20736;BMP180;10528;52.124;5.196;2022-09-09T11:13:57;100563.00;;;24.30
20736;BMP180;10528;52.124;5.196;2022-09-09T11:16:47;100560.00;;;24.30
20736;BMP180;10528;52.124;5.196;2022-09-09T11:19:42;100554.00;;;24.30
20736;BMP180;10528;52.124;5.196;2022-09-09T11:33:52;100562.00;;;24.30
20736;BMP180;10528;52.124;5.196;2022-09-09T11:36:56;100556.00;;;24.30
20736;BMP180;10528;52.124;5.196;2022-09-09T11:44:40;100550.00;;;24.30
20736;BMP180;10528;52.124;5.196;2022-09-09T11:47:31;100566.00;;;24.30
20736;BMP180;10528;52.124;5.196;2022-09-09T11:52:47;100553.00;;;24.30
20736;BMP180;10528;52.124;5.196;2022-09-09T11:55:33;100560.00;;;24.20
20736;BMP180;10528;52.124;5.196;2022-09-09T11:58:05;100567.00;;;24.20
20736;BMP180;10528;52.124;5.196;2022-09-09T12:03:47;100555.00;;;24.20
20736;BMP180;10528;52.124;5.196;2022-09-09T12:06:31;100555.00;;;24.20
20736;BMP180;10528;52.124;5.196;2022-09-09T12:09:08;100563.00;;;24.20
20736;BMP180;10528;52.124;5.196;2022-09-09T12:11:36;100549.00;;;24.20
20736;BMP180;10528;52.124;5.196;2022-09-09T12:14:03;100564.00;;;24.30
20736;BMP180;10528;52.124;5.196;2022-09-09T12:16:34;100565.00;;;24.20
20736;BMP180;10528;52.124;5.196;2022-09-09T12:19:18;100557.00;;;24.20
20736;BMP180;10528;52.124;5.196;2022-09-09T12:22:25;100562.00;;;24.10
20736;BMP180;10528;52.124;5.196;2022-09-09T12:25:08;100561.00;;;24.10
20736;BMP180;10528;52.124;5.196;2022-09-09T12:31:06;100564.00;;;24.20
20736;BMP180;10528;52.124;5.196;2022-09-09T12:33:37;100564.00;;;24.20
20736;BMP180;10528;52.124;5.196;2022-09-09T12:36:14;100560.00;;;24.30
20736;BMP180;10528;52.124;5.196;2022-09-09T12:38:43;100554.00;;;24.30
20736;BMP180;10528;52.124;5.196;2022-09-09T12:41:27;100552.00;;;24.30
20736;BMP180;10528;52.124;5.196;2022-09-09T12:44:08;100558.00;;;24.40
20736;BMP180;10528;52.124;5.196;2022-09-09T12:46:41;100555.00;;;24.40
20736;BMP180;10528;52.124;5.196;2022-09-09T12:49:32;100559.00;;;24.60
20736;BMP180;10528;52.124;5.196;2022-09-09T12:52:11;100553.00;;;24.60
20736;BMP180;10528;52.124;5.196;2022-09-09T12:54:45;100544.00;;;24.70
20736;BMP180;10528;52.124;5.196;2022-09-09T12:57:14;100551.00;;;24.80
20736;BMP180;10528;52.124;5.196;2022-09-09T12:59:44;100547.00;;;24.80
20736;BMP180;10528;52.124;5.196;2022-09-09T13:02:25;100539.00;;;24.80
20736;BMP180;10528;52.124;5.196;2022-09-09T13:04:52;100537.00;;;24.90
20736;BMP180;10528;52.124;5.196;2022-09-09T13:07:21;100554.00;;;24.80
20736;BMP180;10528;52.124;5.196;2022-09-09T13:09:48;100550.00;;;24.90
20736;BMP180;10528;52.124;5.196;2022-09-09T13:12:21;100550.00;;;24.80
20736;BMP180;10528;52.124;5.196;2022-09-09T13:14:53;100557.00;;;24.80
20736;BMP180;10528;52.124;5.196;2022-09-09T13:17:26;100558.00;;;24.80
20736;BMP180;10528;52.124;5.196;2022-09-09T13:19:56;100551.00;;;24.80
20736;BMP180;10528;52.124;5.196;2022-09-09T13:22:36;100549.00;;;24.80
20736;BMP180;10528;52.124;5.196;2022-09-09T13:33:23;100552.00;;;24.90
20736;BMP180;10528;52.124;5.196;2022-09-09T13:35:59;100550.00;;;25.00
20736;BMP180;10528;52.124;5.196;2022-09-09T13:38:31;100544.00;;;25.00
20736;BMP180;10528;52.124;5.196;2022-09-09T13:41:03;100551.00;;;25.00
20736;BMP180;10528;52.124;5.196;2022-09-09T13:43:44;100545.00;;;25.10
20736;BMP180;10528;52.124;5.196;2022-09-09T13:46:34;100552.00;;;25.10
20736;BMP180;10528;52.124;5.196;2022-09-09T13:49:23;100551.00;;;25.10
20736;BMP180;10528;52.124;5.196;2022-09-09T13:51:51;100548.00;;;25.10
20736;BMP180;10528;52.124;5.196;2022-09-09T13:54:21;100546.00;;;25.10
20736;BMP180;10528;52.124;5.196;2022-09-09T13:56:47;100544.00;;;25.10
20736;BMP180;10528;52.124;5.196;2022-09-09T13:59:19;100553.00;;;25.10
20736;BMP180;10528;52.124;5.196;2022-09-09T14:01:47;100552.00;;;25.10
20736;BMP180;10528;52.124;5.196;2022-09-09T14:04:14;100553.00;;;25.10
20736;BMP180;10528;52.124;5.196;2022-09-09T14:06:42;100563.00;;;25.00
20736;BMP180;10528;52.124;5.196;2022-09-09T14:09:13;100560.00;;;25.00
20736;BMP180;10528;52.124;5.196;2022-09-09T14:11:41;100556.00;;;25.00
20736;BMP180;10528;52.124;5.196;2022-09-09T14:14:08;100542.00;;;25.00
20736;BMP180;10528;52.124;5.196;2022-09-09T14:16:35;100555.00;;;25.00
20736;BMP180;10528;52.124;5.196;2022-09-09T14:19:03;100552.00;;;24.90
20736;BMP180;10528;52.124;5.196;2022-09-09T14:21:30;100547.00;;;24.90
20736;BMP180;10528;52.124;5.196;2022-09-09T14:23:57;100554.00;;;24.90
20736;BMP180;10528;52.124;5.196;2022-09-09T14:26:25;100546.00;;;24.80
20736;BMP180;10528;52.124;5.196;2022-09-09T14:28:53;100550.00;;;24.80
20736;BMP180;10528;52.124;5.196;2022-09-09T14:31:23;100546.00;;;24.80
20736;BMP180;10528;52.124;5.196;2022-09-09T14:33:50;100539.00;;;24.70
20736;BMP180;10528;52.124;5.196;2022-09-09T14:36:18;100543.00;;;24.70
20736;BMP180;10528;52.124;5.196;2022-09-09T14:38:45;100535.00;;;24.70
20736;BMP180;10528;52.124;5.196;2022-09-09T14:41:16;100542.00;;;24.70
20736;BMP180;10528;52.124;5.196;2022-09-09T14:43:46;100520.00;;;24.70
20736;BMP180;10528;52.124;5.196;2022-09-09T14:46:17;100533.00;;;24.80
20736;BMP180;10528;52.124;5.196;2022-09-09T14:48:44;100531.00;;;24.80
20736;BMP180;10528;52.124;5.196;2022-09-09T14:51:15;100536.00;;;24.90
20736;BMP180;10528;52.124;5.196;2022-09-09T14:53:43;100529.00;;;24.90
20736;BMP180;10528;52.124;5.196;2022-09-09T14:56:17;100521.00;;;24.90
20736;BMP180;10528;52.124;5.196;2022-09-09T14:58:45;100522.00;;;25.00
20736;BMP180;10528;52.124;5.196;2022-09-09T15:01:16;100528.00;;;25.00
20736;BMP180;10528;52.124;5.196;2022-09-09T15:03:51;100536.00;;;25.00
20736;BMP180;10528;52.124;5.196;2022-09-09T15:06:20;100550.00;;;25.00
20736;BMP180;10528;52.124;5.196;2022-09-09T15:08:52;100549.00;;;24.90
20736;BMP180;10528;52.124;5.196;2022-09-09T15:11:21;100544.00;;;24.90
20736;BMP180;10528;52.124;5.196;2022-09-09T15:13:52;100548.00;;;24.90
20736;BMP180;10528;52.124;5.196;2022-09-09T15:16:25;100556.00;;;24.90
20736;BMP180;10528;52.124;5.196;2022-09-09T15:18:55;100556.00;;;24.90
20736;BMP180;10528;52.124;5.196;2022-09-09T15:21:27;100559.00;;;24.90
20736;BMP180;10528;52.124;5.196;2022-09-09T15:23:55;100557.00;;;24.90
20736;BMP180;10528;52.124;5.196;2022-09-09T15:26:23;100571.00;;;24.90
20736;BMP180;10528;52.124;5.196;2022-09-09T15:28:50;100562.00;;;24.90
20736;BMP180;10528;52.124;5.196;2022-09-09T15:31:26;100568.00;;;24.80
20736;BMP180;10528;52.124;5.196;2022-09-09T15:33:59;100569.00;;;24.80
20736;BMP180;10528;52.124;5.196;2022-09-09T15:36:44;100568.00;;;24.80
20736;BMP180;10528;52.124;5.196;2022-09-09T15:39:16;100560.00;;;24.80
20736;BMP180;10528;52.124;5.196;2022-09-09T15:41:45;100557.00;;;24.80
20736;BMP180;10528;52.124;5.196;2022-09-09T15:44:12;100565.00;;;24.80
20736;BMP180;10528;52.124;5.196;2022-09-09T15:46:49;100564.00;;;24.80
20736;BMP180;10528;52.124;5.196;2022-09-09T15:49:23;100568.00;;;24.80
20736;BMP180;10528;52.124;5.196;2022-09-09T15:51:56;100556.00;;;24.80
20736;BMP180;10528;52.124;5.196;2022-09-09T15:54:25;100556.00;;;24.80
20736;BMP180;10528;52.124;5.196;2022-09-09T15:56:59;100552.00;;;24.80
20736;BMP180;10528;52.124;5.196;2022-09-09T15:59:29;100560.00;;;24.80
20736;BMP180;10528;52.124;5.196;2022-09-09T16:01:57;100563.00;;;24.80
20736;BMP180;10528;52.124;5.196;2022-09-09T16:04:27;100567.00;;;24.80
20736;BMP180;10528;52.124;5.196;2022-09-09T16:07:04;100571.00;;;24.80
20736;BMP180;10528;52.124;5.196;2022-09-09T16:09:33;100579.00;;;24.80
20736;BMP180;10528;52.124;5.196;2022-09-09T16:12:02;100577.00;;;24.80
20736;BMP180;10528;52.124;5.196;2022-09-09T16:14:33;100575.00;;;24.80
20736;BMP180;10528;52.124;5.196;2022-09-09T16:17:03;100587.00;;;24.80
20736;BMP180;10528;52.124;5.196;2022-09-09T16:19:31;100569.00;;;24.80
20736;BMP180;10528;52.124;5.196;2022-09-09T16:21:58;100567.00;;;24.80
20736;BMP180;10528;52.124;5.196;2022-09-09T16:24:25;100572.00;;;24.80